createdAt,value
2019-02-26T00:02:50.675Z,7.13
2019-02-26T00:05:21.406Z,5.33
2019-02-26T00:07:49.215Z,4.70
2019-02-26T00:10:14.828Z,4.30
2019-02-26T00:12:43.519Z,4.23
2019-02-26T00:15:12.146Z,6.40
2019-02-26T00:17:43.162Z,4.07
2019-02-26T00:20:10.962Z,4.47
2019-02-26T00:22:39.046Z,4.40
2019-02-26T00:25:08.479Z,4.47
2019-02-26T00:27:35.387Z,5.40
2019-02-26T00:30:14.318Z,4.87
2019-02-26T00:32:41.850Z,4.50
2019-02-26T00:35:10.482Z,3.43
2019-02-26T00:37:39.490Z,8.83
2019-02-26T00:40:10.121Z,3.60
2019-02-26T00:42:37.122Z,3.43
2019-02-26T00:45:07.894Z,5.10
2019-02-26T00:47:36.286Z,5.43
2019-02-26T00:50:05.129Z,7.47
2019-02-26T00:52:32.654Z,5.00
2019-02-26T00:55:03.053Z,8.33
2019-02-26T00:57:31.714Z,7.53
2019-02-26T01:00:00.736Z,3.90
2019-02-26T01:02:26.968Z,3.83
2019-02-26T01:04:55.602Z,4.40
2019-02-26T01:07:25.968Z,4.90
2019-02-26T01:09:54.600Z,3.33
2019-02-26T01:12:21.769Z,3.87
2019-02-26T01:14:50.657Z,4.60
2019-02-26T01:17:19.245Z,3.73
2019-02-26T01:19:48.230Z,3.87
2019-02-26T01:22:17.131Z,5.97
2019-02-26T01:24:47.617Z,4.33
2019-02-26T01:27:14.391Z,4.03
2019-02-26T01:29:44.549Z,4.67
2019-02-26T01:32:15.166Z,5.53
2019-02-26T01:34:42.576Z,4.40
2019-02-26T01:37:10.325Z,3.43
2019-02-26T01:39:42.178Z,5.73
2019-02-26T01:42:07.041Z,5.63
2019-02-26T01:44:38.081Z,3.93
2019-02-26T01:47:04.994Z,3.60
2019-02-26T01:49:33.621Z,4.53
2019-02-26T01:52:02.235Z,4.50
2019-02-26T01:54:32.977Z,3.97
2019-02-26T01:56:59.484Z,4.77
2019-02-26T01:59:28.103Z,4.67
2019-02-26T02:01:56.732Z,4.27
2019-02-26T02:04:25.349Z,5.57
2019-02-26T02:06:54.941Z,5.33
2019-02-26T02:09:24.970Z,5.77
2019-02-26T02:11:51.598Z,4.80
2019-02-26T02:14:20.191Z,5.30
2019-02-26T02:16:49.085Z,4.37
2019-02-26T02:19:20.052Z,5.60
2019-02-26T02:21:47.645Z,5.60
2019-02-26T02:24:17.474Z,5.27
2019-02-26T02:26:47.515Z,4.77
2019-02-26T02:29:14.997Z,4.10
2019-02-26T02:31:41.786Z,5.03
2019-02-26T02:34:10.413Z,3.67
2019-02-26T02:36:39.040Z,4.57
2019-02-26T02:39:10.713Z,5.27
2019-02-26T02:41:39.132Z,4.13
2019-02-26T02:44:04.964Z,5.37
2019-02-26T02:46:34.133Z,4.23
2019-02-26T02:49:04.727Z,6.00
2019-02-26T02:51:33.465Z,5.23
2019-02-26T02:53:59.851Z,4.70
2019-02-26T02:56:30.758Z,4.67
2019-02-26T02:58:57.114Z,5.50
2019-02-26T03:01:28.570Z,5.23
2019-02-26T03:03:57.928Z,5.00
2019-02-26T03:06:24.259Z,4.27
2019-02-26T03:08:53.530Z,5.67
2019-02-26T03:11:21.687Z,4.73
2019-02-26T03:13:51.252Z,4.20
2019-02-26T03:16:21.343Z,6.27
2019-02-26T03:18:47.606Z,5.77
2019-02-26T03:21:17.676Z,4.73
2019-02-26T03:23:45.605Z,4.60
2019-02-26T03:26:15.135Z,5.63
2019-02-26T03:28:44.451Z,4.77
2019-02-26T03:31:10.796Z,8.03
2019-02-26T03:33:39.400Z,5.47
2019-02-26T03:36:10.927Z,5.37
2019-02-26T03:38:36.650Z,5.83
2019-02-26T03:41:05.360Z,6.13
2019-02-26T03:43:34.742Z,5.50
2019-02-26T03:46:02.955Z,6.70
2019-02-26T03:48:31.605Z,4.53
2019-02-26T03:51:01.281Z,4.70
2019-02-26T03:53:31.403Z,6.80
2019-02-26T03:56:01.922Z,5.87
2019-02-26T03:58:26.494Z,4.43
2019-02-26T04:00:55.140Z,5.00
2019-02-26T04:03:23.782Z,6.40
2019-02-26T04:05:52.419Z,4.57
2019-02-26T04:08:22.505Z,5.63
2019-02-26T04:10:52.738Z,7.07
2019-02-26T04:15:59.592Z,8.63
2019-02-26T04:18:26.014Z,4.47
2019-02-26T04:20:56.828Z,6.43
2019-02-26T04:23:23.557Z,6.03
2019-02-26T04:26:10.975Z,4.67
2019-02-26T04:31:29.722Z,6.50
2019-02-26T04:36:59.110Z,6.23
2019-02-26T04:42:41.008Z,7.13
2019-02-26T04:50:35.508Z,5.00
2019-02-26T04:53:05.106Z,4.27
2019-02-26T04:55:34.994Z,8.37
2019-02-26T04:57:59.588Z,5.97
2019-02-26T05:00:30.388Z,4.37
2019-02-26T05:02:56.908Z,8.47
2019-02-26T05:05:27.792Z,6.13
2019-02-26T05:07:54.750Z,6.93
2019-02-26T05:10:26.442Z,32.60
2019-02-26T05:12:56.197Z,50.60
2019-02-26T05:15:23.085Z,49.43
2019-02-26T05:17:49.276Z,54.20
2019-02-26T05:20:18.962Z,32.60
2019-02-26T05:22:46.544Z,25.83
2019-02-26T05:25:19.203Z,11.77
2019-02-26T05:27:46.051Z,6.40
2019-02-26T05:30:16.490Z,9.17
2019-02-26T05:32:42.106Z,16.40
2019-02-26T05:35:11.582Z,21.63
2019-02-26T05:37:40.989Z,26.80
2019-02-26T05:40:10.398Z,20.83
2019-02-26T05:42:36.950Z,21.37
2019-02-26T05:45:06.875Z,13.77
2019-02-26T05:47:34.235Z,11.27
2019-02-26T05:50:06.245Z,8.60
2019-02-26T05:52:33.224Z,7.90
2019-02-26T05:55:00.513Z,8.67
2019-02-26T05:57:32.509Z,9.37
2019-02-26T05:59:57.753Z,7.33
2019-02-26T06:02:26.338Z,6.53
2019-02-26T06:04:54.960Z,7.03
2019-02-26T06:07:26.967Z,8.33
2019-02-26T06:09:54.240Z,11.70
2019-02-26T06:12:21.193Z,10.63
2019-02-26T06:14:51.486Z,9.13
2019-02-26T06:17:19.821Z,9.97
2019-02-26T06:19:47.407Z,9.10
2019-02-26T06:22:18.132Z,9.20
2019-02-26T06:24:44.665Z,8.50
2019-02-26T06:27:15.872Z,11.10
2019-02-26T06:29:41.920Z,8.97
2019-02-26T06:32:11.989Z,8.00
2019-02-26T06:34:39.505Z,10.60
2019-02-26T06:37:23.773Z,8.57
2019-02-26T06:39:54.830Z,10.40
2019-02-26T06:42:21.065Z,10.70
2019-02-26T06:44:51.437Z,16.30
2019-02-26T06:47:18.641Z,14.60
2019-02-26T06:49:48.538Z,10.77
2019-02-26T06:52:17.979Z,12.23
2019-02-26T06:57:23.730Z,9.17
2019-02-26T06:59:55.126Z,4.80
2019-02-26T07:02:21.022Z,9.83
2019-02-26T07:04:50.032Z,6.07
2019-02-26T07:07:18.674Z,8.20
2019-02-26T07:09:47.294Z,6.23
2019-02-26T07:12:17.033Z,8.30
2019-02-26T07:14:46.443Z,8.63
2019-02-26T07:17:13.209Z,6.10
2019-02-26T07:19:41.812Z,6.53
2019-02-26T07:22:11.666Z,5.60
2019-02-26T07:24:41.189Z,8.37
2019-02-26T07:27:09.156Z,6.67
2019-02-26T07:29:40.025Z,14.33
2019-02-26T07:32:05.647Z,9.67
2019-02-26T07:34:34.206Z,9.47
2019-02-26T07:37:04.258Z,10.07
2019-02-26T07:39:31.811Z,4.70
2019-02-26T07:42:00.440Z,7.27
2019-02-26T07:44:29.055Z,5.73
2019-02-26T07:46:58.826Z,6.50
2019-02-26T07:49:26.335Z,6.47
2019-02-26T07:51:56.076Z,7.87
2019-02-26T07:54:23.592Z,5.90
2019-02-26T07:56:54.617Z,6.50
2019-02-26T07:59:27.462Z,8.63
2019-02-26T08:01:49.776Z,7.10
2019-02-26T08:04:18.525Z,6.60
2019-02-26T08:06:47.067Z,7.23
2019-02-26T08:09:17.002Z,6.93
2019-02-26T08:11:48.488Z,7.77
2019-02-26T08:14:14.337Z,6.40
2019-02-26T08:16:42.274Z,8.07
2019-02-26T08:19:10.888Z,8.57
2019-02-26T08:21:39.543Z,7.53
2019-02-26T08:24:10.619Z,8.67
2019-02-26T08:26:38.615Z,5.30
2019-02-26T08:29:07.580Z,5.70
2019-02-26T08:31:34.475Z,6.07
2019-02-26T08:34:03.101Z,6.60
2019-02-26T08:39:14.962Z,7.10
2019-02-26T08:41:39.555Z,8.23
2019-02-26T08:44:08.222Z,8.73
2019-02-26T08:46:37.835Z,5.47
2019-02-26T08:49:08.261Z,8.03
2019-02-26T08:51:34.115Z,8.87
2019-02-26T08:54:03.083Z,8.20
2019-02-26T08:59:10.307Z,7.37
2019-02-26T09:01:38.964Z,8.50
2019-02-26T09:04:07.577Z,6.43
2019-02-26T09:09:15.355Z,8.33
2019-02-26T09:11:44.366Z,5.47
2019-02-26T09:14:14.144Z,6.13
2019-02-26T09:16:42.329Z,6.57
2019-02-26T09:19:11.320Z,11.03
2019-02-26T09:21:42.542Z,7.20
2019-02-26T09:24:08.593Z,6.93
2019-02-26T09:26:37.234Z,8.07
2019-02-26T09:29:05.861Z,6.00
2019-02-26T09:31:34.480Z,6.20
2019-02-26T09:34:03.125Z,7.17
2019-02-26T09:39:12.675Z,6.53
2019-02-26T09:41:40.321Z,6.80
2019-02-26T09:44:09.654Z,7.50
2019-02-26T09:46:39.334Z,11.83
2019-02-26T09:49:09.888Z,8.63
2019-02-26T09:51:35.239Z,7.00
2019-02-26T09:54:03.118Z,6.03
2019-02-26T09:59:13.021Z,7.00
2019-02-26T10:01:40.754Z,7.63
2019-02-26T10:04:07.852Z,6.13
2019-02-26T10:06:37.894Z,6.90
2019-02-26T10:09:05.223Z,7.90
2019-02-26T10:11:34.095Z,6.33
2019-02-26T10:14:04.859Z,6.33
2019-02-26T10:19:12.495Z,5.53
2019-02-26T10:21:39.996Z,10.37
2019-02-26T10:24:07.540Z,5.33
2019-02-26T10:26:38.603Z,6.63
2019-02-26T10:29:05.033Z,7.43
2019-02-26T10:31:33.773Z,6.60
2019-02-26T10:34:03.144Z,6.87
2019-02-26T10:36:34.724Z,8.07
2019-02-26T10:39:00.736Z,7.53
2019-02-26T10:41:28.336Z,8.90
2019-02-26T10:43:56.994Z,9.47
2019-02-26T10:46:25.627Z,9.47
2019-02-26T10:48:54.272Z,12.17
2019-02-26T10:51:26.084Z,7.87
2019-02-26T10:53:51.829Z,7.33
2019-02-26T10:56:20.715Z,7.07
2019-02-26T10:58:49.378Z,8.83
2019-02-26T11:01:22.775Z,7.40
2019-02-26T11:03:47.285Z,6.07
2019-02-26T11:06:17.387Z,6.13
2019-02-26T11:08:43.948Z,6.93
2019-02-26T11:11:13.964Z,5.90
2019-02-26T11:13:43.511Z,6.43
2019-02-26T11:16:09.855Z,5.80
2019-02-26T11:18:39.810Z,5.70
2019-02-26T11:21:07.132Z,5.70
2019-02-26T11:23:36.315Z,5.67
2019-02-26T11:26:06.505Z,5.47
2019-02-26T11:28:37.903Z,4.93
2019-02-26T11:31:01.696Z,5.50
2019-02-26T11:33:30.593Z,5.83
2019-02-26T11:35:59.628Z,5.80
2019-02-26T11:38:27.943Z,10.13
2019-02-26T11:40:56.562Z,6.25
2019-02-26T11:43:26.978Z,11.22
2019-02-26T11:45:53.855Z,11.05
2019-02-26T11:48:23.373Z,9.05
2019-02-26T11:50:51.155Z,7.00
2019-02-26T11:53:19.793Z,8.33
2019-02-26T11:55:51.387Z,9.73
2019-02-26T11:58:19.880Z,7.47
2019-02-26T12:00:49.622Z,8.70
2019-02-26T12:03:14.583Z,5.62
2019-02-26T12:05:43.207Z,5.40
2019-02-26T12:08:14.485Z,6.37
2019-02-26T12:10:41.143Z,9.43
2019-02-26T12:13:09.778Z,5.70
2019-02-26T12:15:41.477Z,9.60
2019-02-26T12:18:07.065Z,7.28
2019-02-26T12:20:37.971Z,8.85
2019-02-26T12:23:04.622Z,5.75
2019-02-26T12:25:33.549Z,8.83
2019-02-26T12:28:02.948Z,11.75
2019-02-26T12:30:32.382Z,10.05
2019-02-26T12:32:59.733Z,10.05
2019-02-26T12:35:29.697Z,8.53
2019-02-26T12:37:59.368Z,10.75
2019-02-26T12:40:25.660Z,8.30
2019-02-26T12:42:54.326Z,10.45
2019-02-26T12:45:25.615Z,11.57
2019-02-26T12:47:54.935Z,9.35
2019-02-26T12:52:59.092Z,7.15
2019-02-26T12:55:31.614Z,4.97
2019-02-26T12:57:59.401Z,4.70
2019-02-26T13:00:25.267Z,4.62
2019-02-26T13:02:53.904Z,4.87
2019-02-26T13:05:23.188Z,5.95
2019-02-26T13:07:51.214Z,7.60
2019-02-26T13:10:26.245Z,4.30
2019-02-26T13:12:59.289Z,6.60
2019-02-26T13:15:23.501Z,4.05
2019-02-26T13:20:26.715Z,5.03
2019-02-26T13:22:58.716Z,5.53
2019-02-26T13:25:26.766Z,5.50
2019-02-26T13:27:52.976Z,5.17
2019-02-26T13:30:24.206Z,7.72
2019-02-26T13:33:00.410Z,4.92
2019-02-26T13:35:22.595Z,5.22
2019-02-26T13:37:50.494Z,4.58
2019-02-26T13:45:26.665Z,6.60
2019-02-26T13:48:00.975Z,7.08
2019-02-26T13:53:08.568Z,3.22
2019-02-26T13:55:37.215Z,6.97
2019-02-26T13:58:11.712Z,3.55
2019-02-26T14:00:34.797Z,4.35
2019-02-26T14:03:04.204Z,4.65
2019-02-26T14:05:37.941Z,4.97
2019-02-26T14:08:01.002Z,4.30
2019-02-26T14:10:29.995Z,4.35
2019-02-26T14:12:58.721Z,7.65
2019-02-26T14:18:05.664Z,9.95
2019-02-26T14:20:34.312Z,7.33
2019-02-26T14:23:02.953Z,6.83
2019-02-26T14:25:31.600Z,5.35
2019-02-26T14:28:00.509Z,6.85
2019-02-26T14:30:29.159Z,7.72
2019-02-26T14:32:58.085Z,8.60
2019-02-26T14:35:27.079Z,8.83
2019-02-26T14:37:55.716Z,6.17
2019-02-26T14:40:24.372Z,5.85
2019-02-26T14:42:53.007Z,7.70
2019-02-26T14:48:00.219Z,6.72
2019-02-26T14:50:28.874Z,7.60
2019-02-26T14:52:57.493Z,5.28
2019-02-26T14:55:26.151Z,7.50
2019-02-26T14:57:54.783Z,6.28
2019-02-26T15:00:23.747Z,8.80
2019-02-26T15:02:52.731Z,7.47
2019-02-26T15:05:21.385Z,6.45
2019-02-26T15:07:50.013Z,9.05
2019-02-26T15:10:20.482Z,6.05
2019-02-26T15:12:47.578Z,6.35
2019-02-26T15:15:16.237Z,6.50
2019-02-26T15:17:44.871Z,8.70
2019-02-26T15:20:16.702Z,5.75
2019-02-26T15:22:45.607Z,7.87
2019-02-26T15:25:17.450Z,6.85
2019-02-26T15:27:46.074Z,6.40
2019-02-26T15:32:56.385Z,7.97
2019-02-26T15:35:25.027Z,8.47
2019-02-26T15:37:53.648Z,6.62
2019-02-26T15:40:22.307Z,12.17
2019-02-26T15:42:53.068Z,10.18
2019-02-26T15:45:24.041Z,7.72
2019-02-26T15:47:51.302Z,8.03
2019-02-26T15:50:19.949Z,7.05
2019-02-26T15:52:52.750Z,6.08
2019-02-26T15:58:03.002Z,5.95
2019-02-26T16:00:27.067Z,7.15
2019-02-26T16:02:59.040Z,9.20
2019-02-26T16:05:33.868Z,9.75
2019-02-26T16:08:02.860Z,10.48
2019-02-26T16:10:31.497Z,10.20
2019-02-26T16:13:00.196Z,11.35
2019-02-26T16:15:29.115Z,8.25
2019-02-26T16:17:59.032Z,13.23
2019-02-26T16:20:27.103Z,11.15
2019-02-26T16:22:55.748Z,11.43
2019-02-26T16:25:24.707Z,14.53
2019-02-26T16:27:53.899Z,10.63
2019-02-26T16:30:24.918Z,11.33
2019-02-26T16:32:53.529Z,14.30
2019-02-26T16:35:24.762Z,10.03
2019-02-26T16:37:50.794Z,11.73
2019-02-26T16:40:19.431Z,10.90
2019-02-26T16:42:48.060Z,12.78
2019-02-26T16:45:25.332Z,10.82
2019-02-26T16:47:53.967Z,11.43
2019-02-26T16:53:01.431Z,10.18
2019-02-26T16:55:30.075Z,13.95
2019-02-26T16:58:02.228Z,10.23
2019-02-26T17:00:30.298Z,12.20
2019-02-26T17:03:00.769Z,15.45
2019-02-26T17:05:27.909Z,11.70
2019-02-26T17:07:56.882Z,11.97
2019-02-26T17:10:29.391Z,15.43
2019-02-26T17:12:54.150Z,9.30
2019-02-26T17:15:25.556Z,15.87
2019-02-26T17:17:51.423Z,9.80
2019-02-26T17:20:22.442Z,13.43
2019-02-26T17:22:48.691Z,14.07
2019-02-26T17:25:17.318Z,8.27
2019-02-26T17:27:45.947Z,8.87
2019-02-26T17:30:17.206Z,11.10
2019-02-26T17:32:46.125Z,11.30
2019-02-26T17:35:15.077Z,11.47
2019-02-26T17:37:43.724Z,8.97
2019-02-26T17:40:12.342Z,13.00
2019-02-26T17:42:40.984Z,7.63
2019-02-26T17:45:09.603Z,7.87
2019-02-26T17:47:38.596Z,10.17
2019-02-26T17:50:09.645Z,12.00
2019-02-26T17:52:36.236Z,12.40
2019-02-26T17:55:05.164Z,9.67
2019-02-26T17:57:34.666Z,8.87
2019-02-26T18:00:02.702Z,8.33
2019-02-26T18:02:31.332Z,10.63
2019-02-26T18:05:00.762Z,4.60
2019-02-26T18:07:28.893Z,6.30
2019-02-26T18:09:57.512Z,7.57
2019-02-26T18:12:26.156Z,7.07
2019-02-26T18:14:56.120Z,6.93
2019-02-26T18:17:24.032Z,5.37
2019-02-26T18:19:52.923Z,5.77
2019-02-26T18:22:22.284Z,9.10
2019-02-26T18:24:50.203Z,4.57
2019-02-26T19:02:18.014Z,8.20
2019-02-26T19:24:35.874Z,7.47
2019-02-26T19:27:03.492Z,7.60
2019-02-26T19:41:12.658Z,8.27
2019-02-26T20:06:26.169Z,15.27
2019-02-26T20:08:53.703Z,12.03
2019-02-26T20:11:23.663Z,8.07
2019-02-26T20:16:35.502Z,7.97
2019-02-26T20:19:05.679Z,9.43
2019-02-26T20:21:35.643Z,9.73
2019-02-26T20:24:05.722Z,9.83
2019-02-26T20:26:35.673Z,9.13
2019-02-26T20:29:07.811Z,11.77
2019-02-26T20:31:36.000Z,9.43
2019-02-26T20:34:06.682Z,8.13
2019-02-26T20:36:36.115Z,10.27
2019-02-26T20:39:07.915Z,11.97
2019-02-26T20:41:36.203Z,10.23
2019-02-26T20:44:07.837Z,11.63
2019-02-26T20:46:36.304Z,9.57
2019-02-26T20:49:06.402Z,11.90
2019-02-26T20:51:36.629Z,9.60
2019-02-26T20:54:06.614Z,8.50
2019-02-26T20:56:36.877Z,12.27
2019-02-26T20:59:06.865Z,9.63
2019-02-26T21:01:36.851Z,7.77
2019-02-26T21:04:06.828Z,10.47
2019-02-26T21:06:36.795Z,16.97
2019-02-26T21:11:46.026Z,9.37
2019-02-26T21:14:16.306Z,8.70
2019-02-26T21:16:46.620Z,10.07
2019-02-26T21:19:16.592Z,13.10
2019-02-26T21:21:48.884Z,9.53
2019-02-26T21:24:16.877Z,11.00
2019-02-26T21:26:46.841Z,10.03
2019-02-26T21:29:17.113Z,10.57
2019-02-26T21:31:47.079Z,11.33
2019-02-26T21:34:17.348Z,8.83
2019-02-26T21:36:47.848Z,7.93
2019-02-26T21:39:17.997Z,9.27
2019-02-26T21:41:48.205Z,11.40
2019-02-26T21:44:18.178Z,7.90
2019-02-26T21:46:48.442Z,7.47
2019-02-26T21:49:18.405Z,13.67
2019-02-26T21:51:48.364Z,10.40
2019-02-26T21:54:18.335Z,12.63
2019-02-26T21:56:48.886Z,9.03
2019-02-26T21:59:18.262Z,13.20
2019-02-26T22:01:48.228Z,13.50
2019-02-26T22:04:18.190Z,8.43
2019-02-26T22:06:48.143Z,12.43
2019-02-26T22:09:18.109Z,9.97
2019-02-26T22:11:50.422Z,7.27
2019-02-26T22:16:57.141Z,10.93
2019-02-26T22:19:27.345Z,8.27
2019-02-26T22:21:57.290Z,9.87
2019-02-26T22:24:27.314Z,9.83
2019-02-26T22:27:00.141Z,8.93
2019-02-26T22:29:27.610Z,8.77
2019-02-26T22:31:59.762Z,12.03
2019-02-26T22:34:28.264Z,11.13
2019-02-26T22:36:58.227Z,10.07
2019-02-26T22:39:28.496Z,11.53
2019-02-26T22:41:58.464Z,11.23
2019-02-26T22:44:28.739Z,11.80
2019-02-26T22:46:59.223Z,10.80
2019-02-26T22:49:28.925Z,10.20
2019-02-26T22:51:59.116Z,10.00
2019-02-26T22:54:28.855Z,8.50
2019-02-26T22:56:59.076Z,11.60
2019-02-26T22:59:29.354Z,8.87
2019-02-26T23:01:59.292Z,11.40
2019-02-26T23:04:29.449Z,12.87
2019-02-26T23:06:59.578Z,11.37
2019-02-26T23:09:29.902Z,13.97
2019-02-26T23:12:00.223Z,10.27
2019-02-26T23:14:30.196Z,10.07
2019-02-26T23:17:00.158Z,9.77
2019-02-26T23:19:30.177Z,10.30
2019-02-26T23:22:00.482Z,11.73
2019-02-26T23:24:30.462Z,12.80
2019-02-26T23:27:00.429Z,29.77
2019-02-26T23:29:30.416Z,23.77
2019-02-26T23:32:00.379Z,29.07
2019-02-26T23:34:30.350Z,15.50
2019-02-26T23:37:01.002Z,13.27
2019-02-26T23:39:30.295Z,10.17
2019-02-26T23:42:00.230Z,14.80
2019-02-26T23:44:30.523Z,9.73
2019-02-26T23:47:02.101Z,12.73
2019-02-26T23:49:30.758Z,9.17
2019-02-26T23:52:00.706Z,12.57
2019-02-26T23:54:30.672Z,14.67
2019-02-26T23:57:00.630Z,12.87
2019-02-26T23:59:30.592Z,13.27
